Time;durP1;ratioP1;P1;durP2;ratioP2;P2;SDS_P1;SDS_P2;PMS_P1;PMS_P2;Temp;Humidity;BMP_temperature;BMP_pressure;BME280_temperature;BME280_humidity;BME280_pressure;Samples;Min_cycle;Max_cycle;Signal;HPM_P1;HPM_P2
2022/12/02 00:01:44;;;;;;;42.60;18.80;;;3.70;94.40;;;;;;4969374;28;20125;-62
2022/12/02 00:04:21;;;;;;;46.25;20.75;;;3.70;94.40;;;;;;4968078;28;20034;-62
2022/12/02 00:06:47;;;;;;;47.03;19.83;;;3.70;94.40;;;;;;4966634;28;20036;-63
2022/12/02 00:09:41;;;;;;;46.03;19.25;;;3.70;94.50;;;;;;4969152;28;20917;-62
2022/12/02 00:12:23;;;;;;;44.67;18.35;;;3.70;94.40;;;;;;4964835;28;20090;-62
2022/12/02 00:15:00;;;;;;;40.25;16.98;;;3.80;94.40;;;;;;4965083;28;20040;-63
2022/12/02 00:17:26;;;;;;;49.75;20.90;;;3.70;94.40;;;;;;4964815;28;20120;-62
2022/12/02 00:19:53;;;;;;;45.08;18.60;;;3.70;94.40;;;;;;4966535;28;20042;-62
2022/12/02 00:22:19;;;;;;;42.25;18.20;;;3.70;94.40;;;;;;4969682;28;20046;-62
2022/12/02 00:24:45;;;;;;;43.25;19.10;;;3.70;94.40;;;;;;4964125;28;20034;-62
2022/12/02 00:27:11;;;;;;;43.78;18.38;;;3.70;94.40;;;;;;4969094;28;20031;-62
2022/12/02 00:29:37;;;;;;;41.13;18.17;;;3.70;94.50;;;;;;4981761;28;20038;-62
2022/12/02 00:32:03;;;;;;;43.00;19.23;;;3.70;94.50;;;;;;4965605;28;20027;-62
2022/12/02 00:34:29;;;;;;;31.70;15.57;;;3.70;94.60;;;;;;4966294;28;20030;-62
2022/12/02 00:36:54;;;;;;;50.38;20.88;;;3.80;94.60;;;;;;4962729;28;20729;-62
2022/12/02 00:39:20;;;;;;;47.30;20.05;;;3.70;94.40;;;;;;4966443;28;20031;-62
2022/12/02 00:41:46;;;;;;;44.75;17.85;;;3.80;94.50;;;;;;4966649;28;20030;-62
2022/12/02 00:46:56;;;;;;;42.63;18.17;;;3.70;94.60;;;;;;4968221;28;20085;-62
2022/12/02 00:49:22;;;;;;;39.10;17.20;;;3.70;94.80;;;;;;4966083;28;20043;-62
2022/12/02 00:51:47;;;;;;;41.05;17.30;;;3.80;94.50;;;;;;4965115;28;20568;-62
2022/12/02 00:54:13;;;;;;;41.65;18.48;;;3.80;94.80;;;;;;4963546;28;20058;-62
2022/12/02 00:56:40;;;;;;;41.55;18.20;;;3.80;94.40;;;;;;4963786;28;20066;-62
2022/12/02 00:59:05;;;;;;;40.53;17.50;;;3.80;94.50;;;;;;4967121;28;20023;-62
2022/12/02 01:01:34;;;;;;;40.45;17.50;;;3.80;94.40;;;;;;4964527;28;20405;-62
2022/12/02 01:04:00;;;;;;;39.17;17.13;;;3.80;94.50;;;;;;4965580;28;20189;-62
2022/12/02 01:06:26;;;;;;;42.40;17.80;;;3.80;94.50;;;;;;4968601;28;20030;-62
2022/12/02 01:08:51;;;;;;;36.92;17.42;;;3.80;94.60;;;;;;4961830;28;20903;-62
2022/12/02 01:11:17;;;;;;;37.83;17.60;;;3.80;94.50;;;;;;4964110;28;20035;-62
2022/12/02 01:13:43;;;;;;;39.70;17.20;;;3.80;94.40;;;;;;4964069;28;20041;-62
2022/12/02 01:16:09;;;;;;;37.35;17.98;;;3.80;94.60;;;;;;4961242;28;20046;-62
2022/12/02 01:18:35;;;;;;;42.65;19.23;;;3.80;94.40;;;;;;4971306;28;20034;-62
2022/12/02 01:21:00;;;;;;;40.00;18.40;;;3.80;94.40;;;;;;4968805;28;20042;-62
2022/12/02 01:23:26;;;;;;;43.70;18.25;;;3.80;94.30;;;;;;4970086;28;20045;-62
2022/12/02 01:25:52;;;;;;;39.17;16.95;;;3.80;94.30;;;;;;4964485;28;20069;-62
2022/12/02 01:28:18;;;;;;;37.65;17.77;;;3.80;94.50;;;;;;4964919;28;20030;-62
2022/12/02 01:30:44;;;;;;;36.60;16.00;;;3.70;94.60;;;;;;4963922;28;20395;-63
2022/12/02 01:33:10;;;;;;;44.25;19.38;;;3.70;94.60;;;;;;4962384;28;20557;-62
2022/12/02 01:35:37;;;;;;;43.95;19.15;;;3.70;94.70;;;;;;4964035;28;20038;-62
2022/12/02 01:38:03;;;;;;;42.03;18.88;;;3.70;94.90;;;;;;4964765;28;20077;-62
2022/12/02 01:40:30;;;;;;;40.90;18.02;;;3.70;94.60;;;;;;4964567;28;20030;-62
2022/12/02 01:42:55;;;;;;;38.42;17.88;;;3.70;94.60;;;;;;4965421;28;20804;-62
2022/12/02 01:45:22;;;;;;;42.95;19.30;;;3.80;94.70;;;;;;4981719;28;20038;-62
2022/12/02 01:47:48;;;;;;;38.05;17.15;;;3.80;94.80;;;;;;4962030;28;20040;-62
2022/12/02 01:50:16;;;;;;;40.70;18.02;;;3.80;94.80;;;;;;4963127;28;20139;-62
2022/12/02 01:52:43;;;;;;;43.05;18.55;;;3.80;94.80;;;;;;4962552;28;20035;-62
2022/12/02 01:55:13;;;;;;;41.63;18.35;;;3.80;94.70;;;;;;4963461;28;20134;-62
2022/12/02 01:57:39;;;;;;;43.35;17.73;;;3.80;94.70;;;;;;4966131;28;20042;-62
2022/12/02 02:00:07;;;;;;;40.35;17.60;;;3.90;94.70;;;;;;4979138;28;20054;-62
2022/12/02 02:02:39;;;;;;;37.08;17.17;;;3.90;94.70;;;;;;4964017;28;20030;-62
2022/12/02 02:05:15;;;;;;;38.25;18.73;;;3.90;94.60;;;;;;4963101;28;20078;-63
2022/12/02 02:07:45;;;;;;;42.88;17.95;;;3.90;94.60;;;;;;4962378;28;20444;-62
2022/12/02 02:10:11;;;;;;;46.53;19.08;;;3.80;94.50;;;;;;4960199;28;20022;-62
2022/12/02 02:12:38;;;;;;;41.13;17.73;;;3.80;94.60;;;;;;4962462;28;20766;-63
2022/12/02 02:15:06;;;;;;;48.30;19.05;;;3.80;94.60;;;;;;4966478;28;20037;-62
2022/12/02 02:17:32;;;;;;;45.03;19.20;;;3.80;94.70;;;;;;4964813;28;20832;-62
2022/12/02 02:19:58;;;;;;;41.90;18.00;;;3.80;94.70;;;;;;4966683;28;20034;-62
2022/12/02 02:22:51;;;;;;;43.58;18.63;;;3.80;94.60;;;;;;4967045;28;20030;-61
2022/12/02 02:25:17;;;;;;;36.78;16.15;;;3.80;94.60;;;;;;4952086;28;20035;-65
2022/12/02 02:27:51;;;;;;;37.83;16.88;;;3.80;94.60;;;;;;4960807;28;20035;-62
2022/12/02 02:30:17;;;;;;;46.90;20.40;;;3.80;94.60;;;;;;4959782;28;20802;-62
2022/12/02 02:32:43;;;;;;;47.13;18.02;;;3.80;94.60;;;;;;4965938;28;20060;-62
2022/12/02 02:35:09;;;;;;;39.40;16.33;;;3.80;94.70;;;;;;4965386;28;20035;-62
2022/12/02 02:37:36;;;;;;;44.33;19.08;;;3.80;94.80;;;;;;4964787;28;20037;-62
2022/12/02 02:40:02;;;;;;;39.33;17.92;;;3.80;94.80;;;;;;4980539;28;20023;-62
2022/12/02 02:42:30;;;;;;;44.03;18.00;;;3.80;94.80;;;;;;4962226;28;20100;-62
2022/12/02 02:44:56;;;;;;;41.97;18.70;;;3.80;94.80;;;;;;4963715;28;20771;-62
2022/12/02 02:47:22;;;;;;;38.80;17.95;;;3.80;94.80;;;;;;4962417;28;20026;-62
2022/12/02 02:49:48;;;;;;;39.83;18.05;;;3.80;94.70;;;;;;4959958;28;20042;-62
2022/12/02 02:52:14;;;;;;;38.67;16.45;;;3.80;94.70;;;;;;4967512;28;20027;-62
2022/12/02 02:54:41;;;;;;;39.92;16.80;;;3.80;94.70;;;;;;4957128;28;20114;-62
2022/12/02 02:57:08;;;;;;;41.13;19.38;;;3.70;94.70;;;;;;4964683;28;20037;-62
2022/12/02 02:59:36;;;;;;;41.08;19.23;;;3.80;95.10;;;;;;4961524;28;20037;-63
2022/12/02 03:02:07;;;;;;;39.72;18.42;;;3.70;94.80;;;;;;4961517;28;20034;-62
2022/12/02 03:04:32;;;;;;;42.22;17.25;;;3.70;94.90;;;;;;4961997;28;20080;-62
2022/12/02 03:06:59;;;;;;;43.85;19.80;;;3.70;94.90;;;;;;4962148;28;20455;-62
2022/12/02 03:09:25;;;;;;;43.35;18.27;;;3.70;95.00;;;;;;4962890;28;20039;-62
2022/12/02 03:11:53;;;;;;;41.42;20.50;;;3.70;95.10;;;;;;4964704;28;20044;-62
2022/12/02 03:14:20;;;;;;;44.85;18.80;;;3.70;94.90;;;;;;4967545;28;20089;-61
2022/12/02 03:16:48;;;;;;;35.88;16.27;;;3.60;95.40;;;;;;4971383;28;20156;-62
2022/12/02 03:19:14;;;;;;;35.40;17.02;;;3.60;95.20;;;;;;4969483;28;20045;-62
2022/12/02 03:21:40;;;;;;;39.28;17.10;;;3.60;95.30;;;;;;4965475;28;20027;-62
2022/12/02 03:24:07;;;;;;;41.80;18.58;;;3.70;95.20;;;;;;4967052;28;20041;-63
2022/12/02 03:26:33;;;;;;;41.17;18.05;;;3.70;95.30;;;;;;4965107;28;20034;-62
2022/12/02 03:29:00;;;;;;;41.75;18.85;;;3.70;95.20;;;;;;4967615;28;20031;-62
2022/12/02 03:31:27;;;;;;;40.70;18.13;;;3.70;95.20;;;;;;4968332;28;20775;-62
2022/12/02 03:33:54;;;;;;;39.30;16.92;;;3.70;95.10;;;;;;4965404;28;20836;-62
2022/12/02 03:36:21;;;;;;;46.05;18.08;;;3.70;95.10;;;;;;4971241;28;20035;-62
2022/12/02 03:38:47;;;;;;;48.72;20.30;;;3.80;95.10;;;;;;4967817;28;20333;-62
2022/12/02 03:41:13;;;;;;;47.42;19.92;;;3.80;95.00;;;;;;4966761;28;20034;-62
2022/12/02 03:43:39;;;;;;;43.03;17.00;;;3.80;94.80;;;;;;4966457;28;20034;-62
2022/12/02 03:46:06;;;;;;;43.50;18.60;;;3.70;94.90;;;;;;4965306;28;20035;-62
2022/12/02 03:48:34;;;;;;;40.13;18.13;;;3.70;94.70;;;;;;4970163;28;20042;-62
2022/12/02 03:51:00;;;;;;;40.00;18.08;;;3.60;95.10;;;;;;4964502;28;20038;-62
2022/12/02 03:53:27;;;;;;;43.78;18.52;;;3.60;95.20;;;;;;4967563;28;20038;-62
2022/12/02 03:55:54;;;;;;;42.60;19.00;;;3.60;95.40;;;;;;4968231;28;20038;-62
2022/12/02 03:58:30;;;;;;;39.30;17.90;;;3.60;95.40;;;;;;4966621;28;20042;-62
2022/12/02 04:00:56;;;;;;;47.08;19.95;;;3.60;95.30;;;;;;4966965;28;20034;-62
2022/12/02 04:03:22;;;;;;;40.63;18.23;;;3.70;95.30;;;;;;4966170;28;20434;-62
2022/12/02 04:05:48;;;;;;;45.72;20.17;;;3.70;95.30;;;;;;4964342;28;20479;-62
2022/12/02 04:08:13;;;;;;;37.28;17.10;;;3.70;95.30;;;;;;4970340;28;20042;-62
2022/12/02 04:10:39;;;;;;;49.25;21.50;;;3.70;95.20;;;;;;4966417;28;20035;-62
2022/12/02 04:13:05;;;;;;;48.40;19.13;;;3.70;95.10;;;;;;4965824;28;20031;-62
2022/12/02 04:15:31;;;;;;;43.65;18.02;;;3.80;94.90;;;;;;4969525;28;20034;-62
2022/12/02 04:17:56;;;;;;;42.33;19.45;;;3.80;95.00;;;;;;4964436;28;20041;-62
2022/12/02 04:20:22;;;;;;;42.88;19.13;;;3.70;95.00;;;;;;4965359;28;20038;-62
2022/12/02 04:22:48;;;;;;;45.15;18.80;;;3.70;95.00;;;;;;4965029;28;20041;-62
2022/12/02 04:25:14;;;;;;;41.60;17.13;;;3.70;95.10;;;;;;4964431;28;20396;-62
2022/12/02 04:27:40;;;;;;;43.75;18.55;;;3.70;95.10;;;;;;4968947;28;20459;-62
2022/12/02 04:30:06;;;;;;;40.80;18.20;;;3.70;95.10;;;;;;4965220;28;20574;-62
2022/12/02 04:32:32;;;;;;;50.85;20.80;;;3.70;95.20;;;;;;4970872;28;20141;-62
2022/12/02 04:34:58;;;;;;;41.55;18.48;;;3.70;95.10;;;;;;4966889;28;20033;-62
2022/12/02 04:37:23;;;;;;;47.28;20.60;;;3.80;95.10;;;;;;4965753;28;20039;-62
2022/12/02 04:39:49;;;;;;;50.90;21.00;;;3.70;95.10;;;;;;4965551;28;20035;-62
2022/12/02 04:42:15;;;;;;;42.97;19.02;;;3.70;95.30;;;;;;4964172;28;20114;-62
2022/12/02 04:44:41;;;;;;;41.40;19.00;;;3.70;95.20;;;;;;4969829;28;20046;-64
2022/12/02 04:47:07;;;;;;;41.15;18.38;;;3.70;95.20;;;;;;4967386;28;20046;-62
2022/12/02 04:49:32;;;;;;;42.90;17.52;;;3.70;95.20;;;;;;4963590;28;20149;-63
2022/12/02 04:51:58;;;;;;;29.95;15.32;;;3.70;95.20;;;;;;4967638;28;20062;-62
2022/12/02 04:54:24;;;;;;;38.70;17.45;;;3.70;95.10;;;;;;4967067;28;20039;-62
2022/12/02 04:56:50;;;;;;;38.47;18.10;;;3.80;95.00;;;;;;4964538;28;20470;-62
2022/12/02 04:59:16;;;;;;;44.58;19.05;;;3.80;95.00;;;;;;4964915;28;20030;-62
2022/12/02 05:01:41;;;;;;;41.78;18.40;;;3.80;94.90;;;;;;4963146;28;20118;-62
2022/12/02 05:04:07;;;;;;;43.63;18.65;;;3.70;95.00;;;;;;4968997;28;20053;-62
2022/12/02 05:06:33;;;;;;;40.15;17.45;;;3.70;95.00;;;;;;4968219;28;20038;-61
2022/12/02 05:08:58;;;;;;;46.05;20.05;;;3.70;94.90;;;;;;4966182;28;20058;-61
2022/12/02 05:11:24;;;;;;;40.45;17.23;;;3.70;95.00;;;;;;4971641;28;20042;-61
2022/12/02 05:13:50;;;;;;;34.13;16.50;;;3.70;95.10;;;;;;4964242;28;20038;-61
2022/12/02 05:16:16;;;;;;;42.33;17.15;;;3.70;95.10;;;;;;4964443;28;20211;-61
2022/12/02 05:18:41;;;;;;;36.80;17.10;;;3.70;95.30;;;;;;4964573;28;20085;-62
2022/12/02 05:21:07;;;;;;;35.10;15.75;;;3.70;95.00;;;;;;4962523;28;20568;-62
2022/12/02 05:23:33;;;;;;;39.38;18.52;;;3.70;95.20;;;;;;4967747;28;20036;-61
2022/12/02 05:25:59;;;;;;;46.13;19.40;;;3.70;95.20;;;;;;4965232;28;20039;-61
2022/12/02 05:28:24;;;;;;;44.00;18.98;;;3.70;95.10;;;;;;4968186;28;20031;-62
2022/12/02 05:30:50;;;;;;;37.83;16.15;;;3.70;95.10;;;;;;4966038;28;20038;-62
2022/12/02 05:33:16;;;;;;;42.20;17.38;;;3.70;95.20;;;;;;4965413;28;20220;-61
2022/12/02 05:35:42;;;;;;;35.63;16.88;;;3.70;95.20;;;;;;4957520;28;20054;-62
2022/12/02 05:38:07;;;;;;;41.05;18.98;;;3.70;95.10;;;;;;4962723;28;20137;-62
2022/12/02 05:40:33;;;;;;;42.35;16.95;;;3.70;95.20;;;;;;4965769;28;20781;-62
2022/12/02 05:43:22;;;;;;;40.22;18.58;;;3.70;95.10;;;;;;4966439;28;20562;-62
2022/12/02 05:45:49;;;;;;;34.15;16.05;;;3.70;94.90;;;;;;4962240;28;20118;-62
2022/12/02 05:48:17;;;;;;;33.05;15.70;;;3.60;95.00;;;;;;4968276;28;20034;-62
2022/12/02 05:50:44;;;;;;;38.63;17.05;;;3.60;95.10;;;;;;4965378;28;20141;-62
2022/12/02 05:53:30;;;;;;;35.55;15.75;;;3.60;95.20;;;;;;4963704;28;20783;-62
2022/12/02 05:55:56;;;;;;;;;;;3.60;95.20;;;;;;4959210;28;20808;-62
2022/12/02 05:58:22;;;;;;;34.57;15.13;;;3.70;95.10;;;;;;4961606;28;19924;-62
2022/12/02 06:00:55;;;;;;;35.85;16.52;;;3.60;95.10;;;;;;4964728;28;20030;-62
2022/12/02 06:03:21;;;;;;;35.90;16.38;;;3.70;95.20;;;;;;4958866;28;20499;-62
2022/12/02 06:05:49;;;;;;;34.47;16.55;;;3.70;95.20;;;;;;4960117;28;20031;-62
2022/12/02 06:08:15;;;;;;;34.10;15.68;;;3.70;95.20;;;;;;4965196;28;20852;-63
2022/12/02 06:10:46;;;;;;;37.13;16.48;;;3.70;95.10;;;;;;4961474;28;20039;-62
2022/12/02 06:13:25;;;;;;;36.90;16.83;;;3.70;95.20;;;;;;4960265;28;20121;-62
2022/12/02 06:15:51;;;;;;;35.83;15.25;;;3.70;95.10;;;;;;4959267;28;20069;-62
2022/12/02 06:18:20;;;;;;;36.65;16.58;;;3.70;95.40;;;;;;4960256;28;20126;-62
2022/12/02 06:20:50;;;;;;;37.08;16.33;;;3.70;95.40;;;;;;4960959;28;20030;-62
2022/12/02 06:23:19;;;;;;;37.92;16.85;;;3.70;95.30;;;;;;4960122;28;20035;-62
2022/12/02 06:25:48;;;;;;;36.88;15.88;;;3.60;95.30;;;;;;4959889;28;20118;-62
2022/12/02 06:28:25;;;;;;;30.63;13.73;;;3.70;95.30;;;;;;4960784;28;20045;-62
2022/12/02 06:30:55;;;;;;;31.02;15.80;;;3.70;95.30;;;;;;4959891;28;20632;-62
2022/12/02 06:33:32;;;;;;;35.63;16.95;;;3.70;95.30;;;;;;4958189;28;20035;-62
2022/12/02 06:36:02;;;;;;;35.72;15.88;;;3.70;95.20;;;;;;4961256;28;20034;-62
2022/12/02 06:38:35;;;;;;;34.50;14.80;;;3.70;95.30;;;;;;4960986;28;20070;-62
2022/12/02 06:41:30;;;;;;;35.28;15.05;;;3.70;95.30;;;;;;4958931;28;20027;-62
2022/12/02 06:46:45;;;;;;;31.65;13.57;;;3.70;95.40;;;;;;4957002;28;20122;-63
2022/12/02 06:49:29;;;;;;;32.40;14.93;;;3.70;95.40;;;;;;4961822;28;20042;-64
2022/12/02 06:51:59;;;;;;;32.10;15.68;;;3.70;95.30;;;;;;4962393;28;20566;-62
2022/12/02 06:54:28;;;;;;;38.60;17.40;;;3.70;95.20;;;;;;4964946;28;20039;-62
2022/12/02 06:56:56;;;;;;;33.58;15.85;;;3.70;95.20;;;;;;4962045;28;20120;-62
2022/12/02 06:59:23;;;;;;;32.90;15.07;;;3.70;95.10;;;;;;4965594;28;20145;-62
2022/12/02 07:01:58;;;;;;;31.17;15.00;;;3.70;95.20;;;;;;4962963;28;20042;-62
2022/12/02 07:04:48;;;;;;;29.25;13.30;;;3.70;95.30;;;;;;4965577;28;20585;-62
2022/12/02 07:07:26;;;;;;;37.00;17.15;;;3.70;95.40;;;;;;4964890;28;20060;-62
2022/12/02 07:09:53;;;;;;;35.25;15.95;;;3.70;95.30;;;;;;4968628;28;20922;-62
2022/12/02 07:12:33;;;;;;;28.63;13.93;;;3.80;95.20;;;;;;4963959;28;20679;-62
2022/12/02 07:15:10;;;;;;;193.35;84.68;;;3.70;95.30;;;;;;4965129;28;20507;-62
2022/12/02 07:17:39;;;;;;;55.65;24.13;;;3.80;95.30;;;;;;4964795;28;20117;-63
2022/12/02 07:20:10;;;;;;;36.08;16.90;;;3.80;95.20;;;;;;4965257;28;20462;-63
2022/12/02 07:22:44;;;;;;;34.30;15.68;;;3.80;95.30;;;;;;4964977;28;20035;-62
2022/12/02 07:25:16;;;;;;;31.25;14.52;;;3.80;95.20;;;;;;4965702;28;20085;-62
2022/12/02 07:27:45;;;;;;;32.00;14.98;;;3.80;95.30;;;;;;4963966;28;20030;-63
2022/12/02 07:30:25;;;;;;;32.08;15.60;;;3.80;95.10;;;;;;4960207;28;20097;-63
2022/12/02 07:32:51;;;;;;;33.58;15.10;;;3.80;95.20;;;;;;4962098;28;20046;-63
2022/12/02 07:35:17;;;;;;;28.90;13.57;;;3.80;95.20;;;;;;4964113;28;20110;-63
2022/12/02 07:37:43;;;;;;;29.10;13.52;;;3.80;95.20;;;;;;4961840;28;20110;-62
2022/12/02 07:40:11;;;;;;;32.90;14.38;;;3.80;95.20;;;;;;4960419;28;20125;-62
2022/12/02 07:42:36;;;;;;;27.90;13.65;;;3.80;95.10;;;;;;4963698;28;20035;-62
2022/12/02 07:45:03;;;;;;;27.75;13.32;;;3.80;95.10;;;;;;4964990;28;20039;-62
2022/12/02 07:47:30;;;;;;;31.45;14.20;;;3.90;95.20;;;;;;4965013;28;20140;-62
2022/12/02 07:49:57;;;;;;;29.23;13.23;;;3.90;95.10;;;;;;4961565;28;20034;-66
2022/12/02 07:52:23;;;;;;;30.02;13.45;;;3.90;95.10;;;;;;4964606;28;20042;-63
2022/12/02 07:54:50;;;;;;;29.30;13.80;;;3.90;95.20;;;;;;4965054;28;20384;-62
2022/12/02 07:57:16;;;;;;;33.28;14.15;;;3.90;95.10;;;;;;4961915;28;20666;-62
2022/12/02 07:59:42;;;;;;;25.00;12.73;;;3.90;95.10;;;;;;4962556;28;20026;-63
2022/12/02 08:02:07;;;;;;;29.10;14.27;;;3.80;95.10;;;;;;4962396;28;20026;-62
2022/12/02 08:04:33;;;;;;;33.92;14.25;;;3.90;95.10;;;;;;4962130;28;20046;-63
2022/12/02 08:06:59;;;;;;;28.92;13.23;;;3.90;95.10;;;;;;4964813;28;20109;-62
2022/12/02 08:09:24;;;;;;;29.58;13.25;;;3.90;95.00;;;;;;4963801;28;20118;-63
2022/12/02 08:11:50;;;;;;;26.38;12.60;;;3.90;95.10;;;;;;4962825;28;20503;-62
2022/12/02 08:14:16;;;;;;;28.88;12.95;;;3.90;95.10;;;;;;4967249;28;20061;-62
2022/12/02 08:16:42;;;;;;;29.23;13.15;;;3.90;95.10;;;;;;4962420;28;20030;-62
2022/12/02 08:19:08;;;;;;;26.77;12.38;;;3.90;95.10;;;;;;4962677;28;20034;-62
2022/12/02 08:21:33;;;;;;;32.83;15.32;;;4.00;95.10;;;;;;4961621;28;20031;-62
2022/12/02 08:23:59;;;;;;;33.58;15.15;;;3.90;95.00;;;;;;4963448;28;20034;-62
2022/12/02 08:26:25;;;;;;;24.52;13.15;;;4.00;95.00;;;;;;4962190;28;20110;-62
2022/12/02 08:28:51;;;;;;;32.92;14.43;;;4.00;94.90;;;;;;4964026;28;20624;-62
2022/12/02 08:31:17;;;;;;;30.30;13.02;;;4.00;94.90;;;;;;4964005;28;20034;-62
2022/12/02 08:33:42;;;;;;;27.65;14.00;;;4.00;94.90;;;;;;4962180;28;20101;-62
2022/12/02 08:36:08;;;;;;;28.33;12.93;;;4.00;95.00;;;;;;4964120;28;20241;-62
2022/12/02 08:38:34;;;;;;;25.10;12.27;;;4.00;94.90;;;;;;4965809;28;20042;-62
2022/12/02 08:41:00;;;;;;;27.08;12.88;;;4.00;94.90;;;;;;4965260;28;20019;-62
2022/12/02 08:43:26;;;;;;;27.77;12.52;;;4.10;94.80;;;;;;4962609;28;20597;-63
2022/12/02 08:45:51;;;;;;;27.50;12.57;;;4.10;94.80;;;;;;4963181;28;20062;-62
2022/12/02 08:48:18;;;;;;;25.75;12.30;;;4.10;94.70;;;;;;4961940;28;20130;-62
2022/12/02 08:50:44;;;;;;;28.23;13.43;;;4.10;94.70;;;;;;4959348;28;20027;-62
2022/12/02 08:53:09;;;;;;;27.17;13.00;;;4.10;94.70;;;;;;4963061;28;20057;-62
2022/12/02 08:55:35;;;;;;;26.35;12.82;;;4.10;94.70;;;;;;4959297;28;20130;-61
2022/12/02 08:58:01;;;;;;;31.15;13.55;;;4.20;94.70;;;;;;4965299;28;20027;-62
2022/12/02 09:00:27;;;;;;;22.48;10.98;;;4.10;94.70;;;;;;4962540;28;20037;-62
2022/12/02 09:02:52;;;;;;;29.42;13.93;;;4.20;94.70;;;;;;4963040;28;20027;-62
2022/12/02 09:05:18;;;;;;;33.72;14.32;;;4.20;94.60;;;;;;4964727;28;20782;-62
2022/12/02 09:07:44;;;;;;;29.95;14.05;;;4.20;94.60;;;;;;4965572;28;20046;-62
2022/12/02 09:10:12;;;;;;;26.65;12.85;;;4.20;94.60;;;;;;4968049;28;20447;-62
2022/12/02 09:12:37;;;;;;;27.17;12.93;;;4.20;94.50;;;;;;4963010;28;20109;-62
2022/12/02 09:15:04;;;;;;;29.75;13.82;;;4.20;94.40;;;;;;4962426;28;20394;-62
2022/12/02 09:17:30;;;;;;;26.80;13.50;;;4.20;94.50;;;;;;4964335;28;20057;-63
2022/12/02 09:19:55;;;;;;;24.58;12.15;;;4.20;94.50;;;;;;4962946;28;20743;-62
2022/12/02 09:22:21;;;;;;;33.38;15.13;;;4.20;94.50;;;;;;4964994;28;20035;-62
2022/12/02 09:24:47;;;;;;;33.20;15.48;;;4.30;94.10;;;;;;4963187;28;20113;-62
2022/12/02 09:27:13;;;;;;;29.55;14.10;;;4.20;94.10;;;;;;4963776;28;20038;-62
2022/12/02 09:29:39;;;;;;;30.10;13.95;;;4.20;94.20;;;;;;4963067;28;20756;-62
2022/12/02 09:32:07;;;;;;;26.30;12.40;;;4.20;94.20;;;;;;4958781;28;20034;-62
2022/12/02 09:34:33;;;;;;;31.35;13.63;;;4.20;94.10;;;;;;4964524;28;20037;-62
2022/12/02 09:36:59;;;;;;;34.67;13.60;;;4.10;94.20;;;;;;4962383;28;20034;-63
2022/12/02 09:39:25;;;;;;;29.05;13.82;;;4.20;94.40;;;;;;4960350;28;20479;-62
2022/12/02 09:41:51;;;;;;;30.95;13.85;;;4.20;94.40;;;;;;4962839;28;20398;-62
2022/12/02 09:44:16;;;;;;;28.48;14.02;;;4.10;94.00;;;;;;4962878;28;20836;-62
2022/12/02 09:46:42;;;;;;;29.50;14.10;;;4.10;94.10;;;;;;4962070;28;20027;-62
2022/12/02 09:49:08;;;;;;;31.67;14.18;;;4.10;94.20;;;;;;4961610;28;20031;-63
2022/12/02 09:51:34;;;;;;;29.48;14.13;;;4.10;94.00;;;;;;4961619;28;20472;-61
2022/12/02 09:54:02;;;;;;;29.30;13.60;;;4.10;94.10;;;;;;4960804;28;20031;-64
2022/12/02 09:56:29;;;;;;;26.65;11.88;;;4.10;94.20;;;;;;4960775;28;20164;-61
2022/12/02 09:58:56;;;;;;;31.30;12.80;;;4.00;94.20;;;;;;4962313;28;20037;-62
2022/12/02 10:01:23;;;;;;;29.83;13.75;;;4.10;94.40;;;;;;4958216;28;20709;-66
2022/12/02 10:03:50;;;;;;;30.65;13.55;;;4.20;94.40;;;;;;4962333;28;20040;-63
2022/12/02 10:06:28;;;;;;;35.92;15.48;;;4.20;94.20;;;;;;4963295;28;20035;-62
2022/12/02 10:08:56;;;;;;;35.90;15.23;;;4.20;93.90;;;;;;4961387;28;20035;-61
2022/12/02 10:11:27;;;;;;;28.95;13.20;;;4.30;94.00;;;;;;4957061;28;20540;-63
2022/12/02 10:13:55;;;;;;;37.03;14.38;;;4.30;93.80;;;;;;4958532;28;20058;-61
2022/12/02 10:16:20;;;;;;;34.97;14.65;;;4.40;93.70;;;;;;4958769;28;20190;-62
2022/12/02 10:18:47;;;;;;;34.38;14.10;;;4.40;93.50;;;;;;4956880;28;20027;-62
2022/12/02 10:21:13;;;;;;;32.30;13.75;;;4.50;93.40;;;;;;4957312;28;20097;-61
2022/12/02 10:23:58;;;;;;;30.98;12.73;;;4.50;93.30;;;;;;4958349;28;20023;-62
2022/12/02 10:26:25;;;;;;;36.08;14.30;;;4.50;93.20;;;;;;4961369;28;20483;-61
2022/12/02 10:29:08;;;;;;;34.95;14.35;;;4.50;93.30;;;;;;4959894;28;20421;-62
2022/12/02 10:31:35;;;;;;;34.58;14.50;;;4.40;93.30;;;;;;4956300;28;20085;-62
2022/12/02 10:34:06;;;;;;;37.55;15.18;;;4.30;93.20;;;;;;4962133;28;20039;-61
2022/12/02 10:36:42;;;;;;;27.38;12.77;;;4.30;93.40;;;;;;4961621;28;20792;-61
2022/12/02 10:39:20;;;;;;;33.22;13.77;;;4.30;93.10;;;;;;4956178;28;20031;-61
2022/12/02 10:42:06;;;;;;;31.48;14.48;;;4.30;93.30;;;;;;4958243;28;20041;-62
2022/12/02 10:44:33;;;;;;;34.53;14.20;;;4.40;93.20;;;;;;4959642;28;20141;-62
2022/12/02 10:47:19;;;;;;;31.48;13.32;;;4.40;93.30;;;;;;4957675;28;20042;-62
2022/12/02 10:49:56;;;;;;;28.80;13.52;;;4.40;93.50;;;;;;4961577;28;20126;-62
2022/12/02 10:52:31;;;;;;;32.03;14.18;;;4.40;93.30;;;;;;4959245;28;20043;-62
2022/12/02 10:54:58;;;;;;;32.05;14.57;;;4.40;93.30;;;;;;4958944;28;20411;-62
2022/12/02 10:57:27;;;;;;;36.35;15.25;;;4.40;93.50;;;;;;4962366;28;20464;-62
2022/12/02 10:59:56;;;;;;;36.03;15.38;;;4.40;93.40;;;;;;4960130;28;20029;-60
2022/12/02 11:02:23;;;;;;;29.38;12.77;;;4.40;93.50;;;;;;4960419;28;20137;-62
2022/12/02 11:04:50;;;;;;;35.88;16.25;;;4.30;93.20;;;;;;4955689;28;20031;-62
2022/12/02 11:07:16;;;;;;;33.60;14.40;;;4.20;93.20;;;;;;4960102;28;20459;-62
2022/12/02 11:09:50;;;;;;;33.38;13.55;;;4.20;93.30;;;;;;4959369;28;20497;-61
2022/12/02 11:12:56;;;;;;;30.60;14.38;;;4.20;93.00;;;;;;4962927;28;20073;-62
2022/12/02 11:15:49;;;;;;;33.35;14.45;;;4.20;93.10;;;;;;4958303;28;20066;-62
2022/12/02 11:18:24;;;;;;;31.52;14.07;;;4.20;93.10;;;;;;4959088;28;20593;-61
2022/12/02 11:20:54;;;;;;;36.53;14.45;;;4.10;93.10;;;;;;4957314;28;20042;-62
2022/12/02 11:23:21;;;;;;;32.70;13.15;;;4.10;93.10;;;;;;4961979;28;20056;-62
2022/12/02 11:25:48;;;;;;;36.25;13.57;;;4.00;93.10;;;;;;4961551;28;20062;-62
2022/12/02 11:28:31;;;;;;;31.17;14.20;;;4.00;93.30;;;;;;4966569;28;20873;-62
2022/12/02 11:31:09;;;;;;;33.47;13.80;;;4.10;93.30;;;;;;4957339;28;20027;-69
2022/12/02 11:33:50;;;;;;;33.00;13.68;;;4.10;93.30;;;;;;4960982;28;20038;-61
2022/12/02 11:36:26;;;;;;;37.33;15.02;;;4.00;93.20;;;;;;4957790;28;20092;-63
2022/12/02 11:38:52;;;;;;;40.80;15.35;;;4.00;93.40;;;;;;4963708;28;20023;-61
2022/12/02 11:41:22;;;;;;;37.15;15.02;;;3.90;93.50;;;;;;4964594;28;20027;-60
2022/12/02 11:43:51;;;;;;;36.47;14.02;;;3.90;93.50;;;;;;4965791;28;20763;-61
2022/12/02 11:46:20;;;;;;;39.35;14.98;;;4.00;93.50;;;;;;4966812;28;20086;-61
2022/12/02 11:48:51;;;;;;;38.30;16.48;;;4.00;93.60;;;;;;4964682;28;20128;-62
2022/12/02 11:51:38;;;;;;;35.80;14.52;;;4.00;93.20;;;;;;4963443;28;20062;-61
2022/12/02 11:54:11;;;;;;;40.90;14.85;;;4.00;93.20;;;;;;4965298;28;20141;-61
2022/12/02 11:56:38;;;;;;;33.35;14.65;;;4.00;93.30;;;;;;4963762;28;20066;-62
2022/12/02 11:59:23;;;;;;;37.30;16.65;;;4.00;93.40;;;;;;4967235;28;20131;-62
2022/12/02 12:01:49;;;;;;;32.80;14.27;;;4.00;93.40;;;;;;4964025;28;20058;-62
2022/12/02 12:04:25;;;;;;;39.38;15.90;;;4.00;93.40;;;;;;4965460;28;20022;-62
2022/12/02 12:06:56;;;;;;;;;;;3.90;93.30;;;;;;4963719;28;20125;-62
2022/12/02 12:09:22;;;;;;;44.05;16.80;;;3.90;93.40;;;;;;4963137;28;19914;-62
2022/12/02 12:12:10;;;;;;;40.70;16.98;;;3.90;93.60;;;;;;4964578;28;20061;-61
2022/12/02 12:14:55;;;;;;;46.25;17.85;;;3.90;93.40;;;;;;4964042;28;20065;-62
2022/12/02 12:17:44;;;;;;;44.70;16.33;;;3.90;93.30;;;;;;4962691;28;20097;-62
2022/12/02 12:20:12;;;;;;;46.13;15.80;;;3.90;93.30;;;;;;4962152;28;20110;-64
2022/12/02 12:22:39;;;;;;;43.25;16.92;;;3.90;93.30;;;;;;4963217;28;20039;-62
2022/12/02 12:25:38;;;;;;;40.58;16.25;;;3.70;93.10;;;;;;4963835;28;20034;-64
2022/12/02 12:28:25;;;;;;;40.53;16.95;;;3.70;93.40;;;;;;4962124;28;20070;-64
2022/12/02 12:30:51;;;;;;;46.55;17.85;;;3.70;93.60;;;;;;4961517;28;20062;-61
2022/12/02 12:33:17;;;;;;;43.13;18.10;;;3.70;93.10;;;;;;4962030;28;20074;-61
2022/12/02 12:35:43;;;;;;;43.65;17.25;;;3.70;93.60;;;;;;4963276;28;20092;-62
2022/12/02 12:38:08;;;;;;;42.78;18.45;;;3.70;93.50;;;;;;4966342;28;20125;-62
2022/12/02 12:40:34;;;;;;;46.17;18.33;;;3.70;93.50;;;;;;4964544;28;20093;-64
2022/12/02 12:43:00;;;;;;;41.75;18.02;;;3.80;93.80;;;;;;4965691;28;20031;-63
2022/12/02 12:45:26;;;;;;;47.42;18.00;;;3.80;93.40;;;;;;4965244;28;20423;-62
2022/12/02 12:47:51;;;;;;;55.10;19.25;;;3.80;93.60;;;;;;4961220;28;20027;-62
2022/12/02 12:50:17;;;;;;;47.00;18.60;;;3.80;93.40;;;;;;4965069;28;20361;-63
2022/12/02 12:52:43;;;;;;;46.88;19.10;;;3.80;93.20;;;;;;4963236;28;20487;-62